<?xml version="1.0" encoding="UTF-8" standalone="no" ?>
<gpx xmlns="http://www.topografix.com/GPX/1/1" xmlns:xsi="http://www.w3.org/2001/XMLSchema-instance" xsi:schemaLocation="http://www.topografix.com/GPX/1/1 http://www.topografix.com/GPX/1/1/gpx.xsd" version="1.1" creator="VisuGPX - https://www.visugpx.com">
  <metadata>
    <name>De Mussidan à Ste Foy-la-Grande</name>
    <desc><![CDATA[LE CHEMIN VERS COMPOSTELLE, LA VOIE DE VEZELAY d'EGUZON A ST JEAN-PIED-DE-PORT]]></desc>
  </metadata>
  <trk>
    <name><![CDATA[9553578-Mussidan - Sainte-Foy-la-Grande]]></name>
    <trkseg>
      <trkpt lat="45.03654" lon="0.36993">
        <ele>52</ele>
        <time>2019-02-11T10:33:10Z</time>
      </trkpt>
      <trkpt lat="45.03617" lon="0.36994">
        <ele>54</ele>
        <time>2019-02-11T10:34:10Z</time>
      </trkpt>
      <trkpt lat="45.03572" lon="0.36976">
        <ele>54</ele>
        <time>2019-02-11T10:35:10Z</time>
      </trkpt>
      <trkpt lat="45.03535" lon="0.36966">
        <ele>53</ele>
        <time>2019-02-11T10:36:10Z</time>
      </trkpt>
      <trkpt lat="45.0351" lon="0.36956">
        <ele>53</ele>
        <time>2019-02-11T10:37:10Z</time>
      </trkpt>
      <trkpt lat="45.03499" lon="0.36929">
        <ele>51</ele>
        <time>2019-02-11T10:38:10Z</time>
      </trkpt>
      <trkpt lat="45.03468" lon="0.36886">
        <ele>50</ele>
        <time>2019-02-11T10:39:10Z</time>
      </trkpt>
      <trkpt lat="45.03463" lon="0.36867">
        <ele>49</ele>
        <time>2019-02-11T10:40:10Z</time>
      </trkpt>
      <trkpt lat="45.03417" lon="0.36666">
        <ele>53</ele>
        <time>2019-02-11T10:41:10Z</time>
      </trkpt>
      <trkpt lat="45.03402" lon="0.36601">
        <ele>58</ele>
        <time>2019-02-11T10:42:10Z</time>
      </trkpt>
      <trkpt lat="45.03385" lon="0.36605">
        <ele>58</ele>
        <time>2019-02-11T10:43:10Z</time>
      </trkpt>
      <trkpt lat="45.03359" lon="0.36615">
        <ele>58</ele>
        <time>2019-02-11T10:44:10Z</time>
      </trkpt>
      <trkpt lat="45.03317" lon="0.3662">
        <ele>58</ele>
        <time>2019-02-11T10:45:10Z</time>
      </trkpt>
      <trkpt lat="45.03257" lon="0.36638">
        <ele>59</ele>
        <time>2019-02-11T10:46:10Z</time>
      </trkpt>
      <trkpt lat="45.03151" lon="0.36674">
        <ele>60</ele>
        <time>2019-02-11T10:47:10Z</time>
      </trkpt>
      <trkpt lat="45.03083" lon="0.36697">
        <ele>60</ele>
        <time>2019-02-11T10:48:10Z</time>
      </trkpt>
      <trkpt lat="45.03061" lon="0.367">
        <ele>60</ele>
        <time>2019-02-11T10:49:10Z</time>
      </trkpt>
      <trkpt lat="45.02982" lon="0.36733">
        <ele>62</ele>
        <time>2019-02-11T10:50:10Z</time>
      </trkpt>
      <trkpt lat="45.02952" lon="0.36751">
        <ele>62</ele>
        <time>2019-02-11T10:51:10Z</time>
      </trkpt>
      <trkpt lat="45.02926" lon="0.36785">
        <ele>62</ele>
        <time>2019-02-11T10:52:10Z</time>
      </trkpt>
      <trkpt lat="45.02894" lon="0.36826">
        <ele>61</ele>
        <time>2019-02-11T10:53:10Z</time>
      </trkpt>
      <trkpt lat="45.0285" lon="0.3689">
        <ele>62</ele>
        <time>2019-02-11T10:54:10Z</time>
      </trkpt>
      <trkpt lat="45.02824" lon="0.36882">
        <ele>63</ele>
        <time>2019-02-11T10:55:10Z</time>
      </trkpt>
      <trkpt lat="45.02797" lon="0.36871">
        <ele>63</ele>
        <time>2019-02-11T10:56:10Z</time>
      </trkpt>
      <trkpt lat="45.02766" lon="0.36859">
        <ele>64</ele>
        <time>2019-02-11T10:57:10Z</time>
      </trkpt>
      <trkpt lat="45.02735" lon="0.3683">
        <ele>65</ele>
        <time>2019-02-11T10:58:10Z</time>
      </trkpt>
      <trkpt lat="45.02718" lon="0.36818">
        <ele>66</ele>
        <time>2019-02-11T10:59:10Z</time>
      </trkpt>
      <trkpt lat="45.02689" lon="0.36811">
        <ele>68</ele>
        <time>2019-02-11T11:00:10Z</time>
      </trkpt>
      <trkpt lat="45.02651" lon="0.36811">
        <ele>71</ele>
        <time>2019-02-11T11:01:10Z</time>
      </trkpt>
      <trkpt lat="45.02621" lon="0.3681">
        <ele>73</ele>
        <time>2019-02-11T11:02:10Z</time>
      </trkpt>
      <trkpt lat="45.026" lon="0.36807">
        <ele>74</ele>
        <time>2019-02-11T11:03:10Z</time>
      </trkpt>
      <trkpt lat="45.02568" lon="0.36795">
        <ele>76</ele>
        <time>2019-02-11T11:04:10Z</time>
      </trkpt>
      <trkpt lat="45.02542" lon="0.36777">
        <ele>77</ele>
        <time>2019-02-11T11:05:10Z</time>
      </trkpt>
      <trkpt lat="45.02502" lon="0.36766">
        <ele>79</ele>
        <time>2019-02-11T11:06:10Z</time>
      </trkpt>
      <trkpt lat="45.02471" lon="0.36761">
        <ele>82</ele>
        <time>2019-02-11T11:07:10Z</time>
      </trkpt>
      <trkpt lat="45.02436" lon="0.3676">
        <ele>85</ele>
        <time>2019-02-11T11:08:10Z</time>
      </trkpt>
      <trkpt lat="45.02425" lon="0.36747">
        <ele>86</ele>
        <time>2019-02-11T11:09:10Z</time>
      </trkpt>
      <trkpt lat="45.02417" lon="0.36731">
        <ele>87</ele>
        <time>2019-02-11T11:10:10Z</time>
      </trkpt>
      <trkpt lat="45.02388" lon="0.36729">
        <ele>90</ele>
        <time>2019-02-11T11:11:10Z</time>
      </trkpt>
      <trkpt lat="45.02371" lon="0.3673">
        <ele>91</ele>
        <time>2019-02-11T11:12:10Z</time>
      </trkpt>
      <trkpt lat="45.02333" lon="0.36741">
        <ele>95</ele>
        <time>2019-02-11T11:13:10Z</time>
      </trkpt>
      <trkpt lat="45.02319" lon="0.36684">
        <ele>94</ele>
        <time>2019-02-11T11:14:10Z</time>
      </trkpt>
      <trkpt lat="45.02311" lon="0.3663">
        <ele>91</ele>
        <time>2019-02-11T11:15:10Z</time>
      </trkpt>
      <trkpt lat="45.0231" lon="0.36615">
        <ele>90</ele>
        <time>2019-02-11T11:16:10Z</time>
      </trkpt>
      <trkpt lat="45.02301" lon="0.36602">
        <ele>89</ele>
        <time>2019-02-11T11:17:10Z</time>
      </trkpt>
      <trkpt lat="45.02283" lon="0.366">
        <ele>89</ele>
        <time>2019-02-11T11:18:10Z</time>
      </trkpt>
      <trkpt lat="45.02269" lon="0.366">
        <ele>89</ele>
        <time>2019-02-11T11:19:10Z</time>
      </trkpt>
      <trkpt lat="45.02249" lon="0.36596">
        <ele>89</ele>
        <time>2019-02-11T11:20:10Z</time>
      </trkpt>
      <trkpt lat="45.02219" lon="0.36581">
        <ele>91</ele>
        <time>2019-02-11T11:21:10Z</time>
      </trkpt>
      <trkpt lat="45.02179" lon="0.36535">
        <ele>92</ele>
        <time>2019-02-11T11:22:10Z</time>
      </trkpt>
      <trkpt lat="45.02156" lon="0.365">
        <ele>91</ele>
        <time>2019-02-11T11:23:10Z</time>
      </trkpt>
      <trkpt lat="45.02143" lon="0.36475">
        <ele>90</ele>
        <time>2019-02-11T11:24:10Z</time>
      </trkpt>
      <trkpt lat="45.02129" lon="0.36421">
        <ele>88</ele>
        <time>2019-02-11T11:25:10Z</time>
      </trkpt>
      <trkpt lat="45.0211" lon="0.36368">
        <ele>90</ele>
        <time>2019-02-11T11:26:10Z</time>
      </trkpt>
      <trkpt lat="45.02077" lon="0.36267">
        <ele>91</ele>
        <time>2019-02-11T11:27:10Z</time>
      </trkpt>
      <trkpt lat="45.02159" lon="0.36161">
        <ele>92</ele>
        <time>2019-02-11T11:28:10Z</time>
      </trkpt>
      <trkpt lat="45.02163" lon="0.3615">
        <ele>92</ele>
        <time>2019-02-11T11:29:10Z</time>
      </trkpt>
      <trkpt lat="45.02148" lon="0.36139">
        <ele>92</ele>
        <time>2019-02-11T11:30:10Z</time>
      </trkpt>
      <trkpt lat="45.02119" lon="0.36126">
        <ele>93</ele>
        <time>2019-02-11T11:31:10Z</time>
      </trkpt>
      <trkpt lat="45.02065" lon="0.36107">
        <ele>94</ele>
        <time>2019-02-11T11:32:10Z</time>
      </trkpt>
      <trkpt lat="45.0204" lon="0.36107">
        <ele>95</ele>
        <time>2019-02-11T11:33:10Z</time>
      </trkpt>
      <trkpt lat="45.02009" lon="0.36102">
        <ele>96</ele>
        <time>2019-02-11T11:34:10Z</time>
      </trkpt>
      <trkpt lat="45.01978" lon="0.36087">
        <ele>97</ele>
        <time>2019-02-11T11:35:10Z</time>
      </trkpt>
      <trkpt lat="45.0194" lon="0.36074">
        <ele>99</ele>
        <time>2019-02-11T11:36:10Z</time>
      </trkpt>
      <trkpt lat="45.01902" lon="0.36066">
        <ele>100</ele>
        <time>2019-02-11T11:37:10Z</time>
      </trkpt>
      <trkpt lat="45.01877" lon="0.36065">
        <ele>101</ele>
        <time>2019-02-11T11:38:10Z</time>
      </trkpt>
      <trkpt lat="45.01795" lon="0.36069">
        <ele>105</ele>
        <time>2019-02-11T11:39:10Z</time>
      </trkpt>
      <trkpt lat="45.01716" lon="0.36074">
        <ele>110</ele>
        <time>2019-02-11T11:40:10Z</time>
      </trkpt>
      <trkpt lat="45.01688" lon="0.3609">
        <ele>111</ele>
        <time>2019-02-11T11:41:10Z</time>
      </trkpt>
      <trkpt lat="45.0166" lon="0.36113">
        <ele>111</ele>
        <time>2019-02-11T11:42:10Z</time>
      </trkpt>
      <trkpt lat="45.01625" lon="0.36139">
        <ele>109</ele>
        <time>2019-02-11T11:43:10Z</time>
      </trkpt>
      <trkpt lat="45.0158" lon="0.3615">
        <ele>109</ele>
        <time>2019-02-11T11:44:10Z</time>
      </trkpt>
      <trkpt lat="45.01507" lon="0.36193">
        <ele>106</ele>
        <time>2019-02-11T11:45:10Z</time>
      </trkpt>
      <trkpt lat="45.01475" lon="0.362">
        <ele>107</ele>
        <time>2019-02-11T11:46:10Z</time>
      </trkpt>
      <trkpt lat="45.01435" lon="0.36204">
        <ele>109</ele>
        <time>2019-02-11T11:47:10Z</time>
      </trkpt>
      <trkpt lat="45.01391" lon="0.36202">
        <ele>110</ele>
        <time>2019-02-11T11:48:10Z</time>
      </trkpt>
      <trkpt lat="45.0137" lon="0.36211">
        <ele>110</ele>
        <time>2019-02-11T11:49:10Z</time>
      </trkpt>
      <trkpt lat="45.01335" lon="0.36232">
        <ele>112</ele>
        <time>2019-02-11T11:50:10Z</time>
      </trkpt>
      <trkpt lat="45.01309" lon="0.3623">
        <ele>111</ele>
        <time>2019-02-11T11:51:10Z</time>
      </trkpt>
      <trkpt lat="45.01245" lon="0.36207">
        <ele>108</ele>
        <time>2019-02-11T11:52:10Z</time>
      </trkpt>
      <trkpt lat="45.01191" lon="0.36184">
        <ele>108</ele>
        <time>2019-02-11T11:53:10Z</time>
      </trkpt>
      <trkpt lat="45.01158" lon="0.3616">
        <ele>109</ele>
        <time>2019-02-11T11:54:10Z</time>
      </trkpt>
      <trkpt lat="45.01071" lon="0.36106">
        <ele>115</ele>
        <time>2019-02-11T11:55:10Z</time>
      </trkpt>
      <trkpt lat="45.01016" lon="0.36098">
        <ele>117</ele>
        <time>2019-02-11T11:56:10Z</time>
      </trkpt>
      <trkpt lat="45.0093" lon="0.36088">
        <ele>121</ele>
        <time>2019-02-11T11:57:10Z</time>
      </trkpt>
      <trkpt lat="45.00858" lon="0.36092">
        <ele>121</ele>
        <time>2019-02-11T11:58:10Z</time>
      </trkpt>
      <trkpt lat="45.00793" lon="0.36088">
        <ele>124</ele>
        <time>2019-02-11T11:59:10Z</time>
      </trkpt>
      <trkpt lat="45.00853" lon="0.35948">
        <ele>118</ele>
        <time>2019-02-11T12:00:10Z</time>
      </trkpt>
      <trkpt lat="45.00929" lon="0.35819">
        <ele>110</ele>
        <time>2019-02-11T12:01:10Z</time>
      </trkpt>
      <trkpt lat="45.00987" lon="0.35729">
        <ele>103</ele>
        <time>2019-02-11T12:02:10Z</time>
      </trkpt>
      <trkpt lat="45.00942" lon="0.35681">
        <ele>104</ele>
        <time>2019-02-11T12:03:10Z</time>
      </trkpt>
      <trkpt lat="45.0086" lon="0.35677">
        <ele>110</ele>
        <time>2019-02-11T12:04:10Z</time>
      </trkpt>
      <trkpt lat="45.00791" lon="0.35674">
        <ele>116</ele>
        <time>2019-02-11T12:05:10Z</time>
      </trkpt>
      <trkpt lat="45.00755" lon="0.35609">
        <ele>116</ele>
        <time>2019-02-11T12:06:10Z</time>
      </trkpt>
      <trkpt lat="45.00707" lon="0.3554">
        <ele>117</ele>
        <time>2019-02-11T12:07:10Z</time>
      </trkpt>
      <trkpt lat="45.00633" lon="0.35493">
        <ele>114</ele>
        <time>2019-02-11T12:08:10Z</time>
      </trkpt>
      <trkpt lat="45.00585" lon="0.35489">
        <ele>109</ele>
        <time>2019-02-11T12:09:10Z</time>
      </trkpt>
      <trkpt lat="45.00531" lon="0.35493">
        <ele>105</ele>
        <time>2019-02-11T12:10:10Z</time>
      </trkpt>
      <trkpt lat="45.00477" lon="0.35461">
        <ele>100</ele>
        <time>2019-02-11T12:11:10Z</time>
      </trkpt>
      <trkpt lat="45.00363" lon="0.35356">
        <ele>90</ele>
        <time>2019-02-11T12:12:10Z</time>
      </trkpt>
      <trkpt lat="45.00312" lon="0.35291">
        <ele>84</ele>
        <time>2019-02-11T12:13:10Z</time>
      </trkpt>
      <trkpt lat="45.00294" lon="0.35219">
        <ele>79</ele>
        <time>2019-02-11T12:14:10Z</time>
      </trkpt>
      <trkpt lat="45.00304" lon="0.35067">
        <ele>72</ele>
        <time>2019-02-11T12:15:10Z</time>
      </trkpt>
      <trkpt lat="45.00345" lon="0.34984">
        <ele>70</ele>
        <time>2019-02-11T12:16:10Z</time>
      </trkpt>
      <trkpt lat="45.00345" lon="0.34945">
        <ele>67</ele>
        <time>2019-02-11T12:17:10Z</time>
      </trkpt>
      <trkpt lat="45.00271" lon="0.3497">
        <ele>68</ele>
        <time>2019-02-11T12:18:10Z</time>
      </trkpt>
      <trkpt lat="45.00232" lon="0.34999">
        <ele>68</ele>
        <time>2019-02-11T12:19:10Z</time>
      </trkpt>
      <trkpt lat="45.00197" lon="0.35071">
        <ele>69</ele>
        <time>2019-02-11T12:20:10Z</time>
      </trkpt>
      <trkpt lat="45.00156" lon="0.35111">
        <ele>69</ele>
        <time>2019-02-11T12:21:10Z</time>
      </trkpt>
      <trkpt lat="45.00115" lon="0.35111">
        <ele>69</ele>
        <time>2019-02-11T12:22:10Z</time>
      </trkpt>
      <trkpt lat="45.00054" lon="0.35096">
        <ele>68</ele>
        <time>2019-02-11T12:23:10Z</time>
      </trkpt>
      <trkpt lat="44.99945" lon="0.35118">
        <ele>73</ele>
        <time>2019-02-11T12:24:10Z</time>
      </trkpt>
      <trkpt lat="44.99876" lon="0.35176">
        <ele>74</ele>
        <time>2019-02-11T12:25:10Z</time>
      </trkpt>
      <trkpt lat="44.99838" lon="0.35237">
        <ele>74</ele>
        <time>2019-02-11T12:26:10Z</time>
      </trkpt>
      <trkpt lat="44.99812" lon="0.35307">
        <ele>77</ele>
        <time>2019-02-11T12:27:10Z</time>
      </trkpt>
      <trkpt lat="44.99784" lon="0.35395">
        <ele>78</ele>
        <time>2019-02-11T12:28:10Z</time>
      </trkpt>
      <trkpt lat="44.99715" lon="0.35289">
        <ele>88</ele>
        <time>2019-02-11T12:29:10Z</time>
      </trkpt>
      <trkpt lat="44.99713" lon="0.35234">
        <ele>89</ele>
        <time>2019-02-11T12:30:10Z</time>
      </trkpt>
      <trkpt lat="44.99681" lon="0.35085">
        <ele>91</ele>
        <time>2019-02-11T12:31:10Z</time>
      </trkpt>
      <trkpt lat="44.99653" lon="0.3497">
        <ele>98</ele>
        <time>2019-02-11T12:32:10Z</time>
      </trkpt>
      <trkpt lat="44.99576" lon="0.34882">
        <ele>100</ele>
        <time>2019-02-11T12:33:10Z</time>
      </trkpt>
      <trkpt lat="44.99494" lon="0.34785">
        <ele>96</ele>
        <time>2019-02-11T12:34:10Z</time>
      </trkpt>
      <trkpt lat="44.99522" lon="0.346">
        <ele>94</ele>
        <time>2019-02-11T12:35:10Z</time>
      </trkpt>
      <trkpt lat="44.99516" lon="0.34503">
        <ele>96</ele>
        <time>2019-02-11T12:36:10Z</time>
      </trkpt>
      <trkpt lat="44.9949" lon="0.34436">
        <ele>100</ele>
        <time>2019-02-11T12:37:10Z</time>
      </trkpt>
      <trkpt lat="44.99434" lon="0.34327">
        <ele>104</ele>
        <time>2019-02-11T12:38:10Z</time>
      </trkpt>
      <trkpt lat="44.99376" lon="0.34278">
        <ele>109</ele>
        <time>2019-02-11T12:39:10Z</time>
      </trkpt>
      <trkpt lat="44.9932" lon="0.3419">
        <ele>117</ele>
        <time>2019-02-11T12:40:10Z</time>
      </trkpt>
      <trkpt lat="44.99273" lon="0.34117">
        <ele>118</ele>
        <time>2019-02-11T12:41:10Z</time>
      </trkpt>
      <trkpt lat="44.99286" lon="0.34051">
        <ele>117</ele>
        <time>2019-02-11T12:42:10Z</time>
      </trkpt>
      <trkpt lat="44.99262" lon="0.34017">
        <ele>114</ele>
        <time>2019-02-11T12:43:10Z</time>
      </trkpt>
      <trkpt lat="44.99265" lon="0.33947">
        <ele>112</ele>
        <time>2019-02-11T12:44:10Z</time>
      </trkpt>
      <trkpt lat="44.99241" lon="0.33872">
        <ele>109</ele>
        <time>2019-02-11T12:45:10Z</time>
      </trkpt>
      <trkpt lat="44.99202" lon="0.33787">
        <ele>101</ele>
        <time>2019-02-11T12:46:10Z</time>
      </trkpt>
      <trkpt lat="44.99164" lon="0.33732">
        <ele>96</ele>
        <time>2019-02-11T12:47:10Z</time>
      </trkpt>
      <trkpt lat="44.99076" lon="0.33647">
        <ele>97</ele>
        <time>2019-02-11T12:48:10Z</time>
      </trkpt>
      <trkpt lat="44.99033" lon="0.33538">
        <ele>103</ele>
        <time>2019-02-11T12:49:10Z</time>
      </trkpt>
      <trkpt lat="44.98932" lon="0.33301">
        <ele>118</ele>
        <time>2019-02-11T12:50:10Z</time>
      </trkpt>
      <trkpt lat="44.98893" lon="0.33189">
        <ele>116</ele>
        <time>2019-02-11T12:51:10Z</time>
      </trkpt>
      <trkpt lat="44.98848" lon="0.33149">
        <ele>115</ele>
        <time>2019-02-11T12:52:10Z</time>
      </trkpt>
      <trkpt lat="44.9884" lon="0.33101">
        <ele>110</ele>
        <time>2019-02-11T12:53:10Z</time>
      </trkpt>
      <trkpt lat="44.98775" lon="0.3301">
        <ele>102</ele>
        <time>2019-02-11T12:54:10Z</time>
      </trkpt>
      <trkpt lat="44.98737" lon="0.32952">
        <ele>104</ele>
        <time>2019-02-11T12:55:10Z</time>
      </trkpt>
      <trkpt lat="44.98696" lon="0.32876">
        <ele>107</ele>
        <time>2019-02-11T12:56:10Z</time>
      </trkpt>
      <trkpt lat="44.98616" lon="0.32788">
        <ele>115</ele>
        <time>2019-02-11T12:57:10Z</time>
      </trkpt>
      <trkpt lat="44.9855" lon="0.32734">
        <ele>122</ele>
        <time>2019-02-11T12:58:10Z</time>
      </trkpt>
      <trkpt lat="44.98509" lon="0.32709">
        <ele>123</ele>
        <time>2019-02-11T12:59:10Z</time>
      </trkpt>
      <trkpt lat="44.98511" lon="0.326">
        <ele>127</ele>
        <time>2019-02-11T13:00:10Z</time>
      </trkpt>
      <trkpt lat="44.98503" lon="0.32548">
        <ele>128</ele>
        <time>2019-02-11T13:01:10Z</time>
      </trkpt>
      <trkpt lat="44.98471" lon="0.32506">
        <ele>129</ele>
        <time>2019-02-11T13:02:10Z</time>
      </trkpt>
      <trkpt lat="44.98432" lon="0.32388">
        <ele>128</ele>
        <time>2019-02-11T13:03:10Z</time>
      </trkpt>
      <trkpt lat="44.984" lon="0.32397">
        <ele>128</ele>
        <time>2019-02-11T13:04:10Z</time>
      </trkpt>
      <trkpt lat="44.98365" lon="0.32382">
        <ele>126</ele>
        <time>2019-02-11T13:05:10Z</time>
      </trkpt>
      <trkpt lat="44.98333" lon="0.32372">
        <ele>124</ele>
        <time>2019-02-11T13:06:10Z</time>
      </trkpt>
      <trkpt lat="44.98269" lon="0.32372">
        <ele>123</ele>
        <time>2019-02-11T13:07:10Z</time>
      </trkpt>
      <trkpt lat="44.98215" lon="0.32339">
        <ele>122</ele>
        <time>2019-02-11T13:08:10Z</time>
      </trkpt>
      <trkpt lat="44.98159" lon="0.32321">
        <ele>120</ele>
        <time>2019-02-11T13:09:10Z</time>
      </trkpt>
      <trkpt lat="44.98134" lon="0.3233">
        <ele>119</ele>
        <time>2019-02-11T13:10:10Z</time>
      </trkpt>
      <trkpt lat="44.98078" lon="0.32454">
        <ele>116</ele>
        <time>2019-02-11T13:11:10Z</time>
      </trkpt>
      <trkpt lat="44.98067" lon="0.325">
        <ele>116</ele>
        <time>2019-02-11T13:12:10Z</time>
      </trkpt>
      <trkpt lat="44.98037" lon="0.32558">
        <ele>116</ele>
        <time>2019-02-11T13:13:10Z</time>
      </trkpt>
      <trkpt lat="44.97983" lon="0.32606">
        <ele>116</ele>
        <time>2019-02-11T13:14:10Z</time>
      </trkpt>
      <trkpt lat="44.9794" lon="0.32615">
        <ele>116</ele>
        <time>2019-02-11T13:15:10Z</time>
      </trkpt>
      <trkpt lat="44.97874" lon="0.32597">
        <ele>115</ele>
        <time>2019-02-11T13:16:10Z</time>
      </trkpt>
      <trkpt lat="44.97784" lon="0.32658">
        <ele>120</ele>
        <time>2019-02-11T13:17:10Z</time>
      </trkpt>
      <trkpt lat="44.97734" lon="0.32661">
        <ele>121</ele>
        <time>2019-02-11T13:18:10Z</time>
      </trkpt>
      <trkpt lat="44.97642" lon="0.32706">
        <ele>122</ele>
        <time>2019-02-11T13:19:10Z</time>
      </trkpt>
      <trkpt lat="44.97554" lon="0.32703">
        <ele>122</ele>
        <time>2019-02-11T13:20:10Z</time>
      </trkpt>
      <trkpt lat="44.97517" lon="0.32715">
        <ele>123</ele>
        <time>2019-02-11T13:21:10Z</time>
      </trkpt>
      <trkpt lat="44.97408" lon="0.32791">
        <ele>121</ele>
        <time>2019-02-11T13:22:10Z</time>
      </trkpt>
      <trkpt lat="44.97335" lon="0.32843">
        <ele>114</ele>
        <time>2019-02-11T13:23:10Z</time>
      </trkpt>
      <trkpt lat="44.97286" lon="0.32846">
        <ele>112</ele>
        <time>2019-02-11T13:24:10Z</time>
      </trkpt>
      <trkpt lat="44.97195" lon="0.32728">
        <ele>104</ele>
        <time>2019-02-11T13:25:10Z</time>
      </trkpt>
      <trkpt lat="44.97172" lon="0.32655">
        <ele>102</ele>
        <time>2019-02-11T13:26:10Z</time>
      </trkpt>
      <trkpt lat="44.97131" lon="0.32555">
        <ele>100</ele>
        <time>2019-02-11T13:27:10Z</time>
      </trkpt>
      <trkpt lat="44.97073" lon="0.32539">
        <ele>98</ele>
        <time>2019-02-11T13:28:10Z</time>
      </trkpt>
      <trkpt lat="44.97004" lon="0.32552">
        <ele>101</ele>
        <time>2019-02-11T13:29:10Z</time>
      </trkpt>
      <trkpt lat="44.96951" lon="0.3257">
        <ele>101</ele>
        <time>2019-02-11T13:30:10Z</time>
      </trkpt>
      <trkpt lat="44.96914" lon="0.32612">
        <ele>101</ele>
        <time>2019-02-11T13:31:10Z</time>
      </trkpt>
      <trkpt lat="44.96878" lon="0.32624">
        <ele>102</ele>
        <time>2019-02-11T13:32:10Z</time>
      </trkpt>
      <trkpt lat="44.96846" lon="0.32621">
        <ele>101</ele>
        <time>2019-02-11T13:33:10Z</time>
      </trkpt>
      <trkpt lat="44.96785" lon="0.3267">
        <ele>105</ele>
        <time>2019-02-11T13:34:10Z</time>
      </trkpt>
      <trkpt lat="44.96674" lon="0.32761">
        <ele>113</ele>
        <time>2019-02-11T13:35:10Z</time>
      </trkpt>
      <trkpt lat="44.96569" lon="0.32776">
        <ele>119</ele>
        <time>2019-02-11T13:36:10Z</time>
      </trkpt>
      <trkpt lat="44.96504" lon="0.32819">
        <ele>123</ele>
        <time>2019-02-11T13:37:10Z</time>
      </trkpt>
      <trkpt lat="44.96435" lon="0.32837">
        <ele>125</ele>
        <time>2019-02-11T13:38:10Z</time>
      </trkpt>
      <trkpt lat="44.96337" lon="0.32825">
        <ele>129</ele>
        <time>2019-02-11T13:39:10Z</time>
      </trkpt>
      <trkpt lat="44.96246" lon="0.32806">
        <ele>129</ele>
        <time>2019-02-11T13:40:10Z</time>
      </trkpt>
      <trkpt lat="44.96201" lon="0.32782">
        <ele>129</ele>
        <time>2019-02-11T13:41:10Z</time>
      </trkpt>
      <trkpt lat="44.96173" lon="0.32746">
        <ele>127</ele>
        <time>2019-02-11T13:42:10Z</time>
      </trkpt>
      <trkpt lat="44.96111" lon="0.32661">
        <ele>125</ele>
        <time>2019-02-11T13:43:10Z</time>
      </trkpt>
      <trkpt lat="44.96036" lon="0.32567">
        <ele>124</ele>
        <time>2019-02-11T13:44:10Z</time>
      </trkpt>
      <trkpt lat="44.95952" lon="0.32497">
        <ele>126</ele>
        <time>2019-02-11T13:45:10Z</time>
      </trkpt>
      <trkpt lat="44.95892" lon="0.32512">
        <ele>126</ele>
        <time>2019-02-11T13:46:10Z</time>
      </trkpt>
      <trkpt lat="44.95808" lon="0.32542">
        <ele>128</ele>
        <time>2019-02-11T13:47:10Z</time>
      </trkpt>
      <trkpt lat="44.95742" lon="0.32527">
        <ele>128</ele>
        <time>2019-02-11T13:48:10Z</time>
      </trkpt>
      <trkpt lat="44.95677" lon="0.32545">
        <ele>132</ele>
        <time>2019-02-11T13:49:10Z</time>
      </trkpt>
      <trkpt lat="44.9563" lon="0.32542">
        <ele>133</ele>
        <time>2019-02-11T13:50:10Z</time>
      </trkpt>
      <trkpt lat="44.95521" lon="0.3233">
        <ele>129</ele>
        <time>2019-02-11T13:51:10Z</time>
      </trkpt>
      <trkpt lat="44.9545" lon="0.32199">
        <ele>127</ele>
        <time>2019-02-11T13:52:10Z</time>
      </trkpt>
      <trkpt lat="44.9539" lon="0.32014">
        <ele>125</ele>
        <time>2019-02-11T13:53:10Z</time>
      </trkpt>
      <trkpt lat="44.9534" lon="0.31863">
        <ele>131</ele>
        <time>2019-02-11T13:54:10Z</time>
      </trkpt>
      <trkpt lat="44.95272" lon="0.31723">
        <ele>130</ele>
        <time>2019-02-11T13:55:10Z</time>
      </trkpt>
      <trkpt lat="44.95229" lon="0.3165">
        <ele>131</ele>
        <time>2019-02-11T13:56:10Z</time>
      </trkpt>
      <trkpt lat="44.95196" lon="0.31635">
        <ele>130</ele>
        <time>2019-02-11T13:57:10Z</time>
      </trkpt>
      <trkpt lat="44.95145" lon="0.31641">
        <ele>129</ele>
        <time>2019-02-11T13:58:10Z</time>
      </trkpt>
      <trkpt lat="44.95115" lon="0.31656">
        <ele>129</ele>
        <time>2019-02-11T13:59:10Z</time>
      </trkpt>
      <trkpt lat="44.95074" lon="0.31702">
        <ele>126</ele>
        <time>2019-02-11T14:00:10Z</time>
      </trkpt>
      <trkpt lat="44.95044" lon="0.31711">
        <ele>125</ele>
        <time>2019-02-11T14:01:10Z</time>
      </trkpt>
      <trkpt lat="44.94775" lon="0.31647">
        <ele>122</ele>
        <time>2019-02-11T14:02:10Z</time>
      </trkpt>
      <trkpt lat="44.94735" lon="0.31659">
        <ele>120</ele>
        <time>2019-02-11T14:03:10Z</time>
      </trkpt>
      <trkpt lat="44.94681" lon="0.31684">
        <ele>120</ele>
        <time>2019-02-11T14:04:10Z</time>
      </trkpt>
      <trkpt lat="44.94638" lon="0.3169">
        <ele>121</ele>
        <time>2019-02-11T14:05:10Z</time>
      </trkpt>
      <trkpt lat="44.94604" lon="0.31675">
        <ele>123</ele>
        <time>2019-02-11T14:06:10Z</time>
      </trkpt>
      <trkpt lat="44.94539" lon="0.31599">
        <ele>126</ele>
        <time>2019-02-11T14:07:10Z</time>
      </trkpt>
      <trkpt lat="44.94509" lon="0.31587">
        <ele>124</ele>
        <time>2019-02-11T14:08:10Z</time>
      </trkpt>
      <trkpt lat="44.94445" lon="0.31617">
        <ele>118</ele>
        <time>2019-02-11T14:09:10Z</time>
      </trkpt>
      <trkpt lat="44.9441" lon="0.3162">
        <ele>115</ele>
        <time>2019-02-11T14:10:10Z</time>
      </trkpt>
      <trkpt lat="44.94327" lon="0.31562">
        <ele>111</ele>
        <time>2019-02-11T14:11:10Z</time>
      </trkpt>
      <trkpt lat="44.94077" lon="0.31374">
        <ele>95</ele>
        <time>2019-02-11T14:12:10Z</time>
      </trkpt>
      <trkpt lat="44.93914" lon="0.31235">
        <ele>90</ele>
        <time>2019-02-11T14:13:10Z</time>
      </trkpt>
      <trkpt lat="44.9376" lon="0.31156">
        <ele>87</ele>
        <time>2019-02-11T14:14:10Z</time>
      </trkpt>
      <trkpt lat="44.93659" lon="0.31095">
        <ele>84</ele>
        <time>2019-02-11T14:15:10Z</time>
      </trkpt>
      <trkpt lat="44.93626" lon="0.31037">
        <ele>82</ele>
        <time>2019-02-11T14:16:10Z</time>
      </trkpt>
      <trkpt lat="44.93598" lon="0.3094">
        <ele>80</ele>
        <time>2019-02-11T14:17:10Z</time>
      </trkpt>
      <trkpt lat="44.93592" lon="0.30892">
        <ele>80</ele>
        <time>2019-02-11T14:18:10Z</time>
      </trkpt>
      <trkpt lat="44.93564" lon="0.30866">
        <ele>81</ele>
        <time>2019-02-11T14:19:10Z</time>
      </trkpt>
      <trkpt lat="44.93535" lon="0.3094">
        <ele>82</ele>
        <time>2019-02-11T14:20:10Z</time>
      </trkpt>
      <trkpt lat="44.93525" lon="0.30929">
        <ele>83</ele>
        <time>2019-02-11T14:21:10Z</time>
      </trkpt>
      <trkpt lat="44.93519" lon="0.30904">
        <ele>83</ele>
        <time>2019-02-11T14:22:10Z</time>
      </trkpt>
      <trkpt lat="44.93516" lon="0.30861">
        <ele>83</ele>
        <time>2019-02-11T14:23:10Z</time>
      </trkpt>
      <trkpt lat="44.93504" lon="0.30815">
        <ele>82</ele>
        <time>2019-02-11T14:24:10Z</time>
      </trkpt>
      <trkpt lat="44.9349" lon="0.30788">
        <ele>81</ele>
        <time>2019-02-11T14:25:10Z</time>
      </trkpt>
      <trkpt lat="44.9346" lon="0.30774">
        <ele>82</ele>
        <time>2019-02-11T14:26:10Z</time>
      </trkpt>
      <trkpt lat="44.93407" lon="0.30787">
        <ele>85</ele>
        <time>2019-02-11T14:27:10Z</time>
      </trkpt>
      <trkpt lat="44.93368" lon="0.30821">
        <ele>87</ele>
        <time>2019-02-11T14:28:10Z</time>
      </trkpt>
      <trkpt lat="44.93309" lon="0.3088">
        <ele>87</ele>
        <time>2019-02-11T14:29:10Z</time>
      </trkpt>
      <trkpt lat="44.93286" lon="0.30883">
        <ele>88</ele>
        <time>2019-02-11T14:30:10Z</time>
      </trkpt>
      <trkpt lat="44.93264" lon="0.30875">
        <ele>88</ele>
        <time>2019-02-11T14:31:10Z</time>
      </trkpt>
      <trkpt lat="44.93248" lon="0.30853">
        <ele>88</ele>
        <time>2019-02-11T14:32:10Z</time>
      </trkpt>
      <trkpt lat="44.93223" lon="0.30812">
        <ele>88</ele>
        <time>2019-02-11T14:33:10Z</time>
      </trkpt>
      <trkpt lat="44.932" lon="0.30802">
        <ele>89</ele>
        <time>2019-02-11T14:34:10Z</time>
      </trkpt>
      <trkpt lat="44.93169" lon="0.30792">
        <ele>90</ele>
        <time>2019-02-11T14:35:10Z</time>
      </trkpt>
      <trkpt lat="44.93131" lon="0.3075">
        <ele>93</ele>
        <time>2019-02-11T14:36:10Z</time>
      </trkpt>
      <trkpt lat="44.93101" lon="0.30735">
        <ele>96</ele>
        <time>2019-02-11T14:37:10Z</time>
      </trkpt>
      <trkpt lat="44.93049" lon="0.30717">
        <ele>100</ele>
        <time>2019-02-11T14:38:10Z</time>
      </trkpt>
      <trkpt lat="44.93029" lon="0.3071">
        <ele>101</ele>
        <time>2019-02-11T14:39:10Z</time>
      </trkpt>
      <trkpt lat="44.93007" lon="0.30702">
        <ele>103</ele>
        <time>2019-02-11T14:40:10Z</time>
      </trkpt>
      <trkpt lat="44.92976" lon="0.30697">
        <ele>104</ele>
        <time>2019-02-11T14:41:10Z</time>
      </trkpt>
      <trkpt lat="44.92954" lon="0.30684">
        <ele>104</ele>
        <time>2019-02-11T14:42:10Z</time>
      </trkpt>
      <trkpt lat="44.92908" lon="0.30637">
        <ele>105</ele>
        <time>2019-02-11T14:43:10Z</time>
      </trkpt>
      <trkpt lat="44.92861" lon="0.30603">
        <ele>106</ele>
        <time>2019-02-11T14:44:10Z</time>
      </trkpt>
      <trkpt lat="44.9273" lon="0.30502">
        <ele>105</ele>
        <time>2019-02-11T14:45:10Z</time>
      </trkpt>
      <trkpt lat="44.92651" lon="0.30451">
        <ele>105</ele>
        <time>2019-02-11T14:46:10Z</time>
      </trkpt>
      <trkpt lat="44.92594" lon="0.30405">
        <ele>105</ele>
        <time>2019-02-11T14:47:10Z</time>
      </trkpt>
      <trkpt lat="44.92548" lon="0.30381">
        <ele>107</ele>
        <time>2019-02-11T14:48:10Z</time>
      </trkpt>
      <trkpt lat="44.92518" lon="0.30364">
        <ele>109</ele>
        <time>2019-02-11T14:49:10Z</time>
      </trkpt>
      <trkpt lat="44.92484" lon="0.30328">
        <ele>110</ele>
        <time>2019-02-11T14:50:10Z</time>
      </trkpt>
      <trkpt lat="44.92467" lon="0.30298">
        <ele>110</ele>
        <time>2019-02-11T14:51:10Z</time>
      </trkpt>
      <trkpt lat="44.92455" lon="0.30246">
        <ele>111</ele>
        <time>2019-02-11T14:52:10Z</time>
      </trkpt>
      <trkpt lat="44.92467" lon="0.30188">
        <ele>110</ele>
        <time>2019-02-11T14:53:10Z</time>
      </trkpt>
      <trkpt lat="44.92498" lon="0.3002">
        <ele>113</ele>
        <time>2019-02-11T14:54:10Z</time>
      </trkpt>
      <trkpt lat="44.92513" lon="0.29921">
        <ele>115</ele>
        <time>2019-02-11T14:55:10Z</time>
      </trkpt>
      <trkpt lat="44.92528" lon="0.29857">
        <ele>116</ele>
        <time>2019-02-11T14:56:10Z</time>
      </trkpt>
      <trkpt lat="44.92589" lon="0.29627">
        <ele>122</ele>
        <time>2019-02-11T14:57:10Z</time>
      </trkpt>
      <trkpt lat="44.92597" lon="0.29436">
        <ele>119</ele>
        <time>2019-02-11T14:58:10Z</time>
      </trkpt>
      <trkpt lat="44.92589" lon="0.29386">
        <ele>118</ele>
        <time>2019-02-11T14:59:10Z</time>
      </trkpt>
      <trkpt lat="44.92549" lon="0.29233">
        <ele>114</ele>
        <time>2019-02-11T15:00:10Z</time>
      </trkpt>
      <trkpt lat="44.92532" lon="0.29179">
        <ele>115</ele>
        <time>2019-02-11T15:01:10Z</time>
      </trkpt>
      <trkpt lat="44.92502" lon="0.29115">
        <ele>118</ele>
        <time>2019-02-11T15:02:10Z</time>
      </trkpt>
      <trkpt lat="44.92493" lon="0.29043">
        <ele>121</ele>
        <time>2019-02-11T15:03:10Z</time>
      </trkpt>
      <trkpt lat="44.92503" lon="0.28952">
        <ele>124</ele>
        <time>2019-02-11T15:04:10Z</time>
      </trkpt>
      <trkpt lat="44.92505" lon="0.28903">
        <ele>123</ele>
        <time>2019-02-11T15:05:10Z</time>
      </trkpt>
      <trkpt lat="44.92504" lon="0.2887">
        <ele>122</ele>
        <time>2019-02-11T15:06:10Z</time>
      </trkpt>
      <trkpt lat="44.92528" lon="0.28831">
        <ele>122</ele>
        <time>2019-02-11T15:07:10Z</time>
      </trkpt>
      <trkpt lat="44.92562" lon="0.28772">
        <ele>120</ele>
        <time>2019-02-11T15:08:10Z</time>
      </trkpt>
      <trkpt lat="44.92569" lon="0.28692">
        <ele>120</ele>
        <time>2019-02-11T15:09:10Z</time>
      </trkpt>
      <trkpt lat="44.92557" lon="0.28615">
        <ele>121</ele>
        <time>2019-02-11T15:10:10Z</time>
      </trkpt>
      <trkpt lat="44.92524" lon="0.28448">
        <ele>123</ele>
        <time>2019-02-11T15:11:10Z</time>
      </trkpt>
      <trkpt lat="44.92487" lon="0.28224">
        <ele>121</ele>
        <time>2019-02-11T15:12:10Z</time>
      </trkpt>
      <trkpt lat="44.92452" lon="0.28115">
        <ele>116</ele>
        <time>2019-02-11T15:13:10Z</time>
      </trkpt>
      <trkpt lat="44.92417" lon="0.2802">
        <ele>114</ele>
        <time>2019-02-11T15:14:10Z</time>
      </trkpt>
      <trkpt lat="44.92402" lon="0.27965">
        <ele>112</ele>
        <time>2019-02-11T15:15:10Z</time>
      </trkpt>
      <trkpt lat="44.92391" lon="0.27916">
        <ele>111</ele>
        <time>2019-02-11T15:16:10Z</time>
      </trkpt>
      <trkpt lat="44.92388" lon="0.27872">
        <ele>114</ele>
        <time>2019-02-11T15:17:10Z</time>
      </trkpt>
      <trkpt lat="44.92376" lon="0.27833">
        <ele>116</ele>
        <time>2019-02-11T15:18:10Z</time>
      </trkpt>
      <trkpt lat="44.92332" lon="0.27685">
        <ele>118</ele>
        <time>2019-02-11T15:19:10Z</time>
      </trkpt>
      <trkpt lat="44.92306" lon="0.27604">
        <ele>117</ele>
        <time>2019-02-11T15:20:10Z</time>
      </trkpt>
      <trkpt lat="44.92289" lon="0.27504">
        <ele>117</ele>
        <time>2019-02-11T15:21:10Z</time>
      </trkpt>
      <trkpt lat="44.92272" lon="0.27286">
        <ele>118</ele>
        <time>2019-02-11T15:22:10Z</time>
      </trkpt>
      <trkpt lat="44.92263" lon="0.27246">
        <ele>119</ele>
        <time>2019-02-11T15:23:10Z</time>
      </trkpt>
      <trkpt lat="44.92244" lon="0.27199">
        <ele>119</ele>
        <time>2019-02-11T15:24:10Z</time>
      </trkpt>
      <trkpt lat="44.92231" lon="0.27181">
        <ele>120</ele>
        <time>2019-02-11T15:25:10Z</time>
      </trkpt>
      <trkpt lat="44.92257" lon="0.27156">
        <ele>120</ele>
        <time>2019-02-11T15:26:10Z</time>
      </trkpt>
      <trkpt lat="44.92225" lon="0.27001">
        <ele>117</ele>
        <time>2019-02-11T15:27:10Z</time>
      </trkpt>
      <trkpt lat="44.92227" lon="0.26949">
        <ele>115</ele>
        <time>2019-02-11T15:28:10Z</time>
      </trkpt>
      <trkpt lat="44.92221" lon="0.26874">
        <ele>111</ele>
        <time>2019-02-11T15:29:10Z</time>
      </trkpt>
      <trkpt lat="44.92243" lon="0.26798">
        <ele>107</ele>
        <time>2019-02-11T15:30:10Z</time>
      </trkpt>
      <trkpt lat="44.92243" lon="0.26768">
        <ele>106</ele>
        <time>2019-02-11T15:31:10Z</time>
      </trkpt>
      <trkpt lat="44.92235" lon="0.26678">
        <ele>107</ele>
        <time>2019-02-11T15:32:10Z</time>
      </trkpt>
      <trkpt lat="44.9222" lon="0.26475">
        <ele>109</ele>
        <time>2019-02-11T15:33:10Z</time>
      </trkpt>
      <trkpt lat="44.92222" lon="0.26415">
        <ele>110</ele>
        <time>2019-02-11T15:34:10Z</time>
      </trkpt>
      <trkpt lat="44.92227" lon="0.26363">
        <ele>110</ele>
        <time>2019-02-11T15:35:10Z</time>
      </trkpt>
      <trkpt lat="44.92232" lon="0.26343">
        <ele>110</ele>
        <time>2019-02-11T15:36:10Z</time>
      </trkpt>
      <trkpt lat="44.92252" lon="0.26324">
        <ele>110</ele>
        <time>2019-02-11T15:37:10Z</time>
      </trkpt>
      <trkpt lat="44.92253" lon="0.26276">
        <ele>109</ele>
        <time>2019-02-11T15:38:10Z</time>
      </trkpt>
      <trkpt lat="44.92259" lon="0.26225">
        <ele>108</ele>
        <time>2019-02-11T15:39:10Z</time>
      </trkpt>
      <trkpt lat="44.92247" lon="0.26159">
        <ele>109</ele>
        <time>2019-02-11T15:40:10Z</time>
      </trkpt>
      <trkpt lat="44.92208" lon="0.25991">
        <ele>108</ele>
        <time>2019-02-11T15:41:10Z</time>
      </trkpt>
      <trkpt lat="44.92184" lon="0.25912">
        <ele>105</ele>
        <time>2019-02-11T15:42:10Z</time>
      </trkpt>
      <trkpt lat="44.9215" lon="0.25863">
        <ele>103</ele>
        <time>2019-02-11T15:43:10Z</time>
      </trkpt>
      <trkpt lat="44.92099" lon="0.2576">
        <ele>103</ele>
        <time>2019-02-11T15:44:10Z</time>
      </trkpt>
      <trkpt lat="44.92057" lon="0.25616">
        <ele>101</ele>
        <time>2019-02-11T15:45:10Z</time>
      </trkpt>
      <trkpt lat="44.92024" lon="0.2554">
        <ele>101</ele>
        <time>2019-02-11T15:46:10Z</time>
      </trkpt>
      <trkpt lat="44.91965" lon="0.25205">
        <ele>93</ele>
        <time>2019-02-11T15:47:10Z</time>
      </trkpt>
      <trkpt lat="44.91965" lon="0.25161">
        <ele>93</ele>
        <time>2019-02-11T15:48:10Z</time>
      </trkpt>
      <trkpt lat="44.91997" lon="0.24984">
        <ele>89</ele>
        <time>2019-02-11T15:49:10Z</time>
      </trkpt>
      <trkpt lat="44.91993" lon="0.24963">
        <ele>87</ele>
        <time>2019-02-11T15:50:10Z</time>
      </trkpt>
      <trkpt lat="44.9191" lon="0.2485">
        <ele>84</ele>
        <time>2019-02-11T15:51:10Z</time>
      </trkpt>
      <trkpt lat="44.91817" lon="0.2484">
        <ele>77</ele>
        <time>2019-02-11T15:52:10Z</time>
      </trkpt>
      <trkpt lat="44.918" lon="0.24811">
        <ele>75</ele>
        <time>2019-02-11T15:53:10Z</time>
      </trkpt>
      <trkpt lat="44.91795" lon="0.24764">
        <ele>73</ele>
        <time>2019-02-11T15:54:10Z</time>
      </trkpt>
      <trkpt lat="44.91794" lon="0.24567">
        <ele>78</ele>
        <time>2019-02-11T15:55:10Z</time>
      </trkpt>
      <trkpt lat="44.91763" lon="0.24538">
        <ele>80</ele>
        <time>2019-02-11T15:56:10Z</time>
      </trkpt>
      <trkpt lat="44.91746" lon="0.24535">
        <ele>81</ele>
        <time>2019-02-11T15:57:10Z</time>
      </trkpt>
      <trkpt lat="44.91721" lon="0.24505">
        <ele>84</ele>
        <time>2019-02-11T15:58:10Z</time>
      </trkpt>
      <trkpt lat="44.91685" lon="0.2445">
        <ele>87</ele>
        <time>2019-02-11T15:59:10Z</time>
      </trkpt>
      <trkpt lat="44.91657" lon="0.2442">
        <ele>89</ele>
        <time>2019-02-11T16:00:10Z</time>
      </trkpt>
      <trkpt lat="44.91617" lon="0.24394">
        <ele>90</ele>
        <time>2019-02-11T16:01:10Z</time>
      </trkpt>
      <trkpt lat="44.91609" lon="0.24359">
        <ele>90</ele>
        <time>2019-02-11T16:02:10Z</time>
      </trkpt>
      <trkpt lat="44.91602" lon="0.24312">
        <ele>90</ele>
        <time>2019-02-11T16:03:10Z</time>
      </trkpt>
      <trkpt lat="44.91537" lon="0.24148">
        <ele>95</ele>
        <time>2019-02-11T16:04:10Z</time>
      </trkpt>
      <trkpt lat="44.91455" lon="0.24037">
        <ele>100</ele>
        <time>2019-02-11T16:05:10Z</time>
      </trkpt>
      <trkpt lat="44.91425" lon="0.23994">
        <ele>102</ele>
        <time>2019-02-11T16:06:10Z</time>
      </trkpt>
      <trkpt lat="44.91399" lon="0.23943">
        <ele>102</ele>
        <time>2019-02-11T16:07:10Z</time>
      </trkpt>
      <trkpt lat="44.91345" lon="0.23892">
        <ele>103</ele>
        <time>2019-02-11T16:08:10Z</time>
      </trkpt>
      <trkpt lat="44.9126" lon="0.23844">
        <ele>104</ele>
        <time>2019-02-11T16:09:10Z</time>
      </trkpt>
      <trkpt lat="44.91222" lon="0.23814">
        <ele>105</ele>
        <time>2019-02-11T16:10:10Z</time>
      </trkpt>
      <trkpt lat="44.91193" lon="0.23738">
        <ele>107</ele>
        <time>2019-02-11T16:11:10Z</time>
      </trkpt>
      <trkpt lat="44.91207" lon="0.23715">
        <ele>107</ele>
        <time>2019-02-11T16:12:10Z</time>
      </trkpt>
      <trkpt lat="44.91169" lon="0.23636">
        <ele>109</ele>
        <time>2019-02-11T16:13:10Z</time>
      </trkpt>
      <trkpt lat="44.91134" lon="0.23591">
        <ele>110</ele>
        <time>2019-02-11T16:14:10Z</time>
      </trkpt>
      <trkpt lat="44.90966" lon="0.23263">
        <ele>107</ele>
        <time>2019-02-11T16:15:10Z</time>
      </trkpt>
      <trkpt lat="44.90942" lon="0.23228">
        <ele>106</ele>
        <time>2019-02-11T16:16:10Z</time>
      </trkpt>
      <trkpt lat="44.90916" lon="0.23208">
        <ele>106</ele>
        <time>2019-02-11T16:17:10Z</time>
      </trkpt>
      <trkpt lat="44.90888" lon="0.23202">
        <ele>104</ele>
        <time>2019-02-11T16:18:10Z</time>
      </trkpt>
      <trkpt lat="44.90854" lon="0.23209">
        <ele>102</ele>
        <time>2019-02-11T16:19:10Z</time>
      </trkpt>
      <trkpt lat="44.90821" lon="0.23214">
        <ele>100</ele>
        <time>2019-02-11T16:20:10Z</time>
      </trkpt>
      <trkpt lat="44.90757" lon="0.23241">
        <ele>98</ele>
        <time>2019-02-11T16:21:10Z</time>
      </trkpt>
      <trkpt lat="44.90692" lon="0.23262">
        <ele>96</ele>
        <time>2019-02-11T16:22:10Z</time>
      </trkpt>
      <trkpt lat="44.90656" lon="0.23248">
        <ele>97</ele>
        <time>2019-02-11T16:23:10Z</time>
      </trkpt>
      <trkpt lat="44.9057" lon="0.23205">
        <ele>94</ele>
        <time>2019-02-11T16:24:10Z</time>
      </trkpt>
      <trkpt lat="44.90476" lon="0.23158">
        <ele>88</ele>
        <time>2019-02-11T16:25:10Z</time>
      </trkpt>
      <trkpt lat="44.90453" lon="0.2314">
        <ele>86</ele>
        <time>2019-02-11T16:26:10Z</time>
      </trkpt>
      <trkpt lat="44.90433" lon="0.23107">
        <ele>85</ele>
        <time>2019-02-11T16:27:10Z</time>
      </trkpt>
      <trkpt lat="44.90419" lon="0.23069">
        <ele>84</ele>
        <time>2019-02-11T16:28:10Z</time>
      </trkpt>
      <trkpt lat="44.90361" lon="0.23025">
        <ele>78</ele>
        <time>2019-02-11T16:29:10Z</time>
      </trkpt>
      <trkpt lat="44.9022" lon="0.23015">
        <ele>72</ele>
        <time>2019-02-11T16:30:10Z</time>
      </trkpt>
      <trkpt lat="44.9017" lon="0.23015">
        <ele>76</ele>
        <time>2019-02-11T16:31:10Z</time>
      </trkpt>
      <trkpt lat="44.90128" lon="0.22993">
        <ele>79</ele>
        <time>2019-02-11T16:32:10Z</time>
      </trkpt>
      <trkpt lat="44.9004" lon="0.23019">
        <ele>83</ele>
        <time>2019-02-11T16:33:10Z</time>
      </trkpt>
      <trkpt lat="44.89916" lon="0.23041">
        <ele>87</ele>
        <time>2019-02-11T16:34:10Z</time>
      </trkpt>
      <trkpt lat="44.89847" lon="0.23041">
        <ele>89</ele>
        <time>2019-02-11T16:35:10Z</time>
      </trkpt>
      <trkpt lat="44.89783" lon="0.23046">
        <ele>89</ele>
        <time>2019-02-11T16:36:10Z</time>
      </trkpt>
      <trkpt lat="44.89666" lon="0.23044">
        <ele>90</ele>
        <time>2019-02-11T16:37:10Z</time>
      </trkpt>
      <trkpt lat="44.89527" lon="0.2306">
        <ele>89</ele>
        <time>2019-02-11T16:38:10Z</time>
      </trkpt>
      <trkpt lat="44.89458" lon="0.23075">
        <ele>90</ele>
        <time>2019-02-11T16:39:10Z</time>
      </trkpt>
      <trkpt lat="44.89332" lon="0.231">
        <ele>94</ele>
        <time>2019-02-11T16:40:10Z</time>
      </trkpt>
      <trkpt lat="44.8931" lon="0.22961">
        <ele>93</ele>
        <time>2019-02-11T16:41:10Z</time>
      </trkpt>
      <trkpt lat="44.89314" lon="0.22881">
        <ele>89</ele>
        <time>2019-02-11T16:42:10Z</time>
      </trkpt>
      <trkpt lat="44.89314" lon="0.22807">
        <ele>87</ele>
        <time>2019-02-11T16:43:10Z</time>
      </trkpt>
      <trkpt lat="44.89279" lon="0.22739">
        <ele>87</ele>
        <time>2019-02-11T16:44:10Z</time>
      </trkpt>
      <trkpt lat="44.89245" lon="0.22688">
        <ele>89</ele>
        <time>2019-02-11T16:45:10Z</time>
      </trkpt>
      <trkpt lat="44.89209" lon="0.22598">
        <ele>90</ele>
        <time>2019-02-11T16:46:10Z</time>
      </trkpt>
      <trkpt lat="44.89182" lon="0.22551">
        <ele>91</ele>
        <time>2019-02-11T16:47:10Z</time>
      </trkpt>
      <trkpt lat="44.8912" lon="0.22499">
        <ele>94</ele>
        <time>2019-02-11T16:48:10Z</time>
      </trkpt>
      <trkpt lat="44.89039" lon="0.22443">
        <ele>100</ele>
        <time>2019-02-11T16:49:10Z</time>
      </trkpt>
      <trkpt lat="44.88979" lon="0.2238">
        <ele>102</ele>
        <time>2019-02-11T16:50:10Z</time>
      </trkpt>
      <trkpt lat="44.88906" lon="0.223">
        <ele>101</ele>
        <time>2019-02-11T16:51:10Z</time>
      </trkpt>
      <trkpt lat="44.88832" lon="0.22275">
        <ele>106</ele>
        <time>2019-02-11T16:52:10Z</time>
      </trkpt>
      <trkpt lat="44.88806" lon="0.22268">
        <ele>111</ele>
        <time>2019-02-11T16:53:10Z</time>
      </trkpt>
      <trkpt lat="44.88771" lon="0.22232">
        <ele>119</ele>
        <time>2019-02-11T16:54:10Z</time>
      </trkpt>
      <trkpt lat="44.8863" lon="0.22077">
        <ele>145</ele>
        <time>2019-02-11T16:55:10Z</time>
      </trkpt>
      <trkpt lat="44.8858" lon="0.2208">
        <ele>146</ele>
        <time>2019-02-11T16:56:10Z</time>
      </trkpt>
      <trkpt lat="44.88518" lon="0.22109">
        <ele>145</ele>
        <time>2019-02-11T16:57:10Z</time>
      </trkpt>
      <trkpt lat="44.88436" lon="0.22163">
        <ele>144</ele>
        <time>2019-02-11T16:58:10Z</time>
      </trkpt>
      <trkpt lat="44.88367" lon="0.22228">
        <ele>146</ele>
        <time>2019-02-11T16:59:10Z</time>
      </trkpt>
      <trkpt lat="44.88281" lon="0.2234">
        <ele>141</ele>
        <time>2019-02-11T17:00:10Z</time>
      </trkpt>
      <trkpt lat="44.88213" lon="0.22438">
        <ele>139</ele>
        <time>2019-02-11T17:01:10Z</time>
      </trkpt>
      <trkpt lat="44.88168" lon="0.22463">
        <ele>137</ele>
        <time>2019-02-11T17:02:10Z</time>
      </trkpt>
      <trkpt lat="44.88066" lon="0.22493">
        <ele>135</ele>
        <time>2019-02-11T17:03:10Z</time>
      </trkpt>
      <trkpt lat="44.88009" lon="0.22506">
        <ele>133</ele>
        <time>2019-02-11T17:04:10Z</time>
      </trkpt>
      <trkpt lat="44.87961" lon="0.22504">
        <ele>133</ele>
        <time>2019-02-11T17:05:10Z</time>
      </trkpt>
      <trkpt lat="44.87908" lon="0.22513">
        <ele>131</ele>
        <time>2019-02-11T17:06:10Z</time>
      </trkpt>
      <trkpt lat="44.87886" lon="0.22477">
        <ele>133</ele>
        <time>2019-02-11T17:07:10Z</time>
      </trkpt>
      <trkpt lat="44.87855" lon="0.22403">
        <ele>134</ele>
        <time>2019-02-11T17:08:10Z</time>
      </trkpt>
      <trkpt lat="44.87826" lon="0.22367">
        <ele>134</ele>
        <time>2019-02-11T17:09:10Z</time>
      </trkpt>
      <trkpt lat="44.87654" lon="0.22349">
        <ele>130</ele>
        <time>2019-02-11T17:10:10Z</time>
      </trkpt>
      <trkpt lat="44.87646" lon="0.22369">
        <ele>130</ele>
        <time>2019-02-11T17:11:10Z</time>
      </trkpt>
      <trkpt lat="44.87631" lon="0.22391">
        <ele>128</ele>
        <time>2019-02-11T17:12:10Z</time>
      </trkpt>
      <trkpt lat="44.876" lon="0.22392">
        <ele>129</ele>
        <time>2019-02-11T17:13:10Z</time>
      </trkpt>
      <trkpt lat="44.87548" lon="0.22401">
        <ele>129</ele>
        <time>2019-02-11T17:14:10Z</time>
      </trkpt>
      <trkpt lat="44.875" lon="0.22389">
        <ele>133</ele>
        <time>2019-02-11T17:15:10Z</time>
      </trkpt>
      <trkpt lat="44.87456" lon="0.22389">
        <ele>134</ele>
        <time>2019-02-11T17:16:10Z</time>
      </trkpt>
      <trkpt lat="44.87403" lon="0.22425">
        <ele>130</ele>
        <time>2019-02-11T17:17:10Z</time>
      </trkpt>
      <trkpt lat="44.8736" lon="0.22465">
        <ele>122</ele>
        <time>2019-02-11T17:18:10Z</time>
      </trkpt>
      <trkpt lat="44.87337" lon="0.22425">
        <ele>124</ele>
        <time>2019-02-11T17:19:10Z</time>
      </trkpt>
      <trkpt lat="44.87304" lon="0.22392">
        <ele>124</ele>
        <time>2019-02-11T17:20:10Z</time>
      </trkpt>
      <trkpt lat="44.87285" lon="0.22335">
        <ele>128</ele>
        <time>2019-02-11T17:21:10Z</time>
      </trkpt>
      <trkpt lat="44.87261" lon="0.2229">
        <ele>130</ele>
        <time>2019-02-11T17:22:10Z</time>
      </trkpt>
      <trkpt lat="44.87202" lon="0.22243">
        <ele>133</ele>
        <time>2019-02-11T17:23:10Z</time>
      </trkpt>
      <trkpt lat="44.87169" lon="0.22205">
        <ele>135</ele>
        <time>2019-02-11T17:24:10Z</time>
      </trkpt>
      <trkpt lat="44.87124" lon="0.22098">
        <ele>137</ele>
        <time>2019-02-11T17:25:10Z</time>
      </trkpt>
      <trkpt lat="44.87116" lon="0.22044">
        <ele>135</ele>
        <time>2019-02-11T17:26:10Z</time>
      </trkpt>
      <trkpt lat="44.87137" lon="0.21977">
        <ele>133</ele>
        <time>2019-02-11T17:27:10Z</time>
      </trkpt>
      <trkpt lat="44.87172" lon="0.21873">
        <ele>131</ele>
        <time>2019-02-11T17:28:10Z</time>
      </trkpt>
      <trkpt lat="44.87208" lon="0.21761">
        <ele>130</ele>
        <time>2019-02-11T17:29:10Z</time>
      </trkpt>
      <trkpt lat="44.87225" lon="0.21584">
        <ele>126</ele>
        <time>2019-02-11T17:30:10Z</time>
      </trkpt>
      <trkpt lat="44.87212" lon="0.21461">
        <ele>123</ele>
        <time>2019-02-11T17:31:10Z</time>
      </trkpt>
      <trkpt lat="44.87111" lon="0.2146">
        <ele>118</ele>
        <time>2019-02-11T17:32:10Z</time>
      </trkpt>
      <trkpt lat="44.87052" lon="0.21463">
        <ele>119</ele>
        <time>2019-02-11T17:33:10Z</time>
      </trkpt>
      <trkpt lat="44.87046" lon="0.21487">
        <ele>120</ele>
        <time>2019-02-11T17:34:10Z</time>
      </trkpt>
      <trkpt lat="44.86961" lon="0.21463">
        <ele>121</ele>
        <time>2019-02-11T17:35:10Z</time>
      </trkpt>
      <trkpt lat="44.86867" lon="0.21595">
        <ele>127</ele>
        <time>2019-02-11T17:36:10Z</time>
      </trkpt>
      <trkpt lat="44.86857" lon="0.2164">
        <ele>131</ele>
        <time>2019-02-11T17:37:10Z</time>
      </trkpt>
      <trkpt lat="44.86771" lon="0.21714">
        <ele>139</ele>
        <time>2019-02-11T17:38:10Z</time>
      </trkpt>
      <trkpt lat="44.86698" lon="0.2179">
        <ele>144</ele>
        <time>2019-02-11T17:39:10Z</time>
      </trkpt>
      <trkpt lat="44.86643" lon="0.2188">
        <ele>151</ele>
        <time>2019-02-11T17:40:10Z</time>
      </trkpt>
      <trkpt lat="44.86568" lon="0.21898">
        <ele>151</ele>
        <time>2019-02-11T17:41:10Z</time>
      </trkpt>
      <trkpt lat="44.86487" lon="0.21909">
        <ele>150</ele>
        <time>2019-02-11T17:42:10Z</time>
      </trkpt>
      <trkpt lat="44.86543" lon="0.22093">
        <ele>150</ele>
        <time>2019-02-11T17:43:10Z</time>
      </trkpt>
      <trkpt lat="44.86404" lon="0.22299">
        <ele>133</ele>
        <time>2019-02-11T17:44:10Z</time>
      </trkpt>
      <trkpt lat="44.86359" lon="0.22326">
        <ele>127</ele>
        <time>2019-02-11T17:45:10Z</time>
      </trkpt>
      <trkpt lat="44.86243" lon="0.22324">
        <ele>119</ele>
        <time>2019-02-11T17:46:10Z</time>
      </trkpt>
      <trkpt lat="44.86166" lon="0.2234">
        <ele>113</ele>
        <time>2019-02-11T17:47:10Z</time>
      </trkpt>
      <trkpt lat="44.86134" lon="0.22282">
        <ele>110</ele>
        <time>2019-02-11T17:48:10Z</time>
      </trkpt>
      <trkpt lat="44.8605" lon="0.22309">
        <ele>103</ele>
        <time>2019-02-11T17:49:10Z</time>
      </trkpt>
      <trkpt lat="44.8603" lon="0.22335">
        <ele>103</ele>
        <time>2019-02-11T17:50:10Z</time>
      </trkpt>
      <trkpt lat="44.85947" lon="0.22351">
        <ele>100</ele>
        <time>2019-02-11T17:51:10Z</time>
      </trkpt>
      <trkpt lat="44.8595" lon="0.22282">
        <ele>99</ele>
        <time>2019-02-11T17:52:10Z</time>
      </trkpt>
      <trkpt lat="44.85949" lon="0.22142">
        <ele>98</ele>
        <time>2019-02-11T17:53:10Z</time>
      </trkpt>
      <trkpt lat="44.85905" lon="0.21952">
        <ele>97</ele>
        <time>2019-02-11T17:54:10Z</time>
      </trkpt>
      <trkpt lat="44.85917" lon="0.2184">
        <ele>96</ele>
        <time>2019-02-11T17:55:10Z</time>
      </trkpt>
      <trkpt lat="44.85904" lon="0.21768">
        <ele>98</ele>
        <time>2019-02-11T17:56:10Z</time>
      </trkpt>
      <trkpt lat="44.85868" lon="0.21618">
        <ele>112</ele>
        <time>2019-02-11T17:57:10Z</time>
      </trkpt>
      <trkpt lat="44.85848" lon="0.21552">
        <ele>118</ele>
        <time>2019-02-11T17:58:10Z</time>
      </trkpt>
      <trkpt lat="44.85795" lon="0.21539">
        <ele>119</ele>
        <time>2019-02-11T17:59:10Z</time>
      </trkpt>
      <trkpt lat="44.85744" lon="0.21544">
        <ele>118</ele>
        <time>2019-02-11T18:00:10Z</time>
      </trkpt>
      <trkpt lat="44.85695" lon="0.21553">
        <ele>118</ele>
        <time>2019-02-11T18:01:10Z</time>
      </trkpt>
      <trkpt lat="44.85616" lon="0.21602">
        <ele>117</ele>
        <time>2019-02-11T18:02:10Z</time>
      </trkpt>
      <trkpt lat="44.85535" lon="0.21617">
        <ele>114</ele>
        <time>2019-02-11T18:03:10Z</time>
      </trkpt>
      <trkpt lat="44.85489" lon="0.21627">
        <ele>112</ele>
        <time>2019-02-11T18:04:10Z</time>
      </trkpt>
      <trkpt lat="44.85405" lon="0.21636">
        <ele>109</ele>
        <time>2019-02-11T18:05:10Z</time>
      </trkpt>
      <trkpt lat="44.85315" lon="0.21667">
        <ele>102</ele>
        <time>2019-02-11T18:06:10Z</time>
      </trkpt>
      <trkpt lat="44.85204" lon="0.21671">
        <ele>98</ele>
        <time>2019-02-11T18:07:10Z</time>
      </trkpt>
      <trkpt lat="44.85108" lon="0.21727">
        <ele>91</ele>
        <time>2019-02-11T18:08:10Z</time>
      </trkpt>
      <trkpt lat="44.85085" lon="0.21732">
        <ele>89</ele>
        <time>2019-02-11T18:09:10Z</time>
      </trkpt>
      <trkpt lat="44.85063" lon="0.21705">
        <ele>85</ele>
        <time>2019-02-11T18:10:10Z</time>
      </trkpt>
      <trkpt lat="44.85028" lon="0.217">
        <ele>77</ele>
        <time>2019-02-11T18:11:10Z</time>
      </trkpt>
      <trkpt lat="44.8501" lon="0.21681">
        <ele>75</ele>
        <time>2019-02-11T18:12:10Z</time>
      </trkpt>
      <trkpt lat="44.84987" lon="0.21667">
        <ele>70</ele>
        <time>2019-02-11T18:13:10Z</time>
      </trkpt>
      <trkpt lat="44.84877" lon="0.21698">
        <ele>43</ele>
        <time>2019-02-11T18:14:10Z</time>
      </trkpt>
      <trkpt lat="44.84778" lon="0.21736">
        <ele>29</ele>
        <time>2019-02-11T18:15:10Z</time>
      </trkpt>
      <trkpt lat="44.8465" lon="0.21774">
        <ele>23</ele>
        <time>2019-02-11T18:16:10Z</time>
      </trkpt>
      <trkpt lat="44.84612" lon="0.2179">
        <ele>22</ele>
        <time>2019-02-11T18:17:10Z</time>
      </trkpt>
      <trkpt lat="44.84616" lon="0.21828">
        <ele>22</ele>
        <time>2019-02-11T18:18:10Z</time>
      </trkpt>
      <trkpt lat="44.84498" lon="0.2188">
        <ele>13</ele>
        <time>2019-02-11T18:19:10Z</time>
      </trkpt>
      <trkpt lat="44.84474" lon="0.21719">
        <ele>16</ele>
        <time>2019-02-11T18:20:10Z</time>
      </trkpt>
      <trkpt lat="44.84456" lon="0.21602">
        <ele>17</ele>
        <time>2019-02-11T18:21:10Z</time>
      </trkpt>
      <trkpt lat="44.84458" lon="0.2153">
        <ele>18</ele>
        <time>2019-02-11T18:22:10Z</time>
      </trkpt>
      <trkpt lat="44.84425" lon="0.21461">
        <ele>17</ele>
        <time>2019-02-11T18:23:10Z</time>
      </trkpt>
      <trkpt lat="44.84403" lon="0.21348">
        <ele>17</ele>
        <time>2019-02-11T18:24:10Z</time>
      </trkpt>
      <trkpt lat="44.84361" lon="0.21232">
        <ele>19</ele>
        <time>2019-02-11T18:25:10Z</time>
      </trkpt>
      <trkpt lat="44.84315" lon="0.21138">
        <ele>16</ele>
        <time>2019-02-11T18:26:10Z</time>
      </trkpt>
      <trkpt lat="44.84298" lon="0.21082">
        <ele>16</ele>
        <time>2019-02-11T18:27:10Z</time>
      </trkpt>
      <trkpt lat="44.8428" lon="0.2103">
        <ele>16</ele>
        <time>2019-02-11T18:28:10Z</time>
      </trkpt>
      <trkpt lat="44.84257" lon="0.21008">
        <ele>16</ele>
        <time>2019-02-11T18:29:10Z</time>
      </trkpt>
      <trkpt lat="44.84247" lon="0.20971">
        <ele>17</ele>
        <time>2019-02-11T18:30:10Z</time>
      </trkpt>
      <trkpt lat="44.84251" lon="0.20936">
        <ele>18</ele>
        <time>2019-02-11T18:31:10Z</time>
      </trkpt>
    </trkseg>
  </trk>
</gpx>